sensor_id;sensor_type;location;lat;lon;timestamp;P1;durP1;ratioP1;P2;durP2;ratioP2
65469;SDS011;52067;50.710;14.492;2024-02-26T00:00:11;155.23;;;46.80;;
65469;SDS011;52067;50.710;14.492;2024-02-26T00:02:37;130.77;;;41.67;;
65469;SDS011;52067;50.710;14.492;2024-02-26T00:05:06;109.25;;;38.25;;
65469;SDS011;52067;50.710;14.492;2024-02-26T00:07:32;102.63;;;34.30;;
65469;SDS011;52067;50.710;14.492;2024-02-26T00:09:58;92.20;;;34.97;;
65469;SDS011;52067;50.710;14.492;2024-02-26T00:12:23;96.95;;;34.88;;
65469;SDS011;52067;50.710;14.492;2024-02-26T00:14:49;95.50;;;31.10;;
65469;SDS011;52067;50.710;14.492;2024-02-26T00:17:15;84.25;;;31.77;;
65469;SDS011;52067;50.710;14.492;2024-02-26T00:19:40;98.10;;;36.35;;
65469;SDS011;52067;50.710;14.492;2024-02-26T00:22:06;119.10;;;41.15;;
65469;SDS011;52067;50.710;14.492;2024-02-26T00:24:31;114.15;;;40.70;;
65469;SDS011;52067;50.710;14.492;2024-02-26T00:26:57;107.85;;;38.50;;
65469;SDS011;52067;50.710;14.492;2024-02-26T00:29:22;96.07;;;34.65;;
65469;SDS011;52067;50.710;14.492;2024-02-26T00:31:48;95.90;;;34.05;;
65469;SDS011;52067;50.710;14.492;2024-02-26T00:34:13;97.78;;;33.28;;
65469;SDS011;52067;50.710;14.492;2024-02-26T00:36:39;91.35;;;31.55;;
65469;SDS011;52067;50.710;14.492;2024-02-26T00:39:04;97.72;;;35.70;;
65469;SDS011;52067;50.710;14.492;2024-02-26T00:41:29;93.63;;;32.45;;
65469;SDS011;52067;50.710;14.492;2024-02-26T00:43:55;94.18;;;32.08;;
65469;SDS011;52067;50.710;14.492;2024-02-26T00:46:20;84.30;;;31.50;;
65469;SDS011;52067;50.710;14.492;2024-02-26T00:48:45;82.03;;;31.33;;
65469;SDS011;52067;50.710;14.492;2024-02-26T00:51:11;78.65;;;30.05;;
65469;SDS011;52067;50.710;14.492;2024-02-26T00:53:36;76.65;;;29.75;;
65469;SDS011;52067;50.710;14.492;2024-02-26T00:56:02;81.00;;;30.15;;
65469;SDS011;52067;50.710;14.492;2024-02-26T00:58:27;83.60;;;30.40;;
65469;SDS011;52067;50.710;14.492;2024-02-26T01:00:52;78.95;;;28.77;;
65469;SDS011;52067;50.710;14.492;2024-02-26T01:03:18;79.60;;;30.67;;
65469;SDS011;52067;50.710;14.492;2024-02-26T01:05:44;88.43;;;28.23;;
65469;SDS011;52067;50.710;14.492;2024-02-26T01:08:09;75.57;;;25.45;;
65469;SDS011;52067;50.710;14.492;2024-02-26T01:10:35;74.88;;;27.50;;
65469;SDS011;52067;50.710;14.492;2024-02-26T01:13:00;78.30;;;26.42;;
65469;SDS011;52067;50.710;14.492;2024-02-26T01:15:26;77.75;;;28.02;;
65469;SDS011;52067;50.710;14.492;2024-02-26T01:17:52;86.63;;;28.83;;
65469;SDS011;52067;50.710;14.492;2024-02-26T01:20:17;83.72;;;30.95;;
65469;SDS011;52067;50.710;14.492;2024-02-26T01:22:43;65.90;;;26.17;;
65469;SDS011;52067;50.710;14.492;2024-02-26T01:25:09;69.22;;;25.35;;
65469;SDS011;52067;50.710;14.492;2024-02-26T01:27:35;70.20;;;26.00;;
65469;SDS011;52067;50.710;14.492;2024-02-26T01:30:04;56.85;;;24.30;;
65469;SDS011;52067;50.710;14.492;2024-02-26T01:32:31;73.45;;;26.63;;
65469;SDS011;52067;50.710;14.492;2024-02-26T01:34:56;72.60;;;27.38;;
65469;SDS011;52067;50.710;14.492;2024-02-26T01:37:22;75.35;;;27.95;;
65469;SDS011;52067;50.710;14.492;2024-02-26T01:39:47;73.18;;;25.70;;
65469;SDS011;52067;50.710;14.492;2024-02-26T01:42:13;75.53;;;25.95;;
65469;SDS011;52067;50.710;14.492;2024-02-26T01:44:38;78.82;;;26.08;;
65469;SDS011;52067;50.710;14.492;2024-02-26T01:47:04;85.68;;;26.95;;
65469;SDS011;52067;50.710;14.492;2024-02-26T01:49:33;81.50;;;28.38;;
65469;SDS011;52067;50.710;14.492;2024-02-26T01:52:00;85.25;;;29.02;;
65469;SDS011;52067;50.710;14.492;2024-02-26T01:54:26;72.05;;;25.15;;
65469;SDS011;52067;50.710;14.492;2024-02-26T01:56:52;80.88;;;25.55;;
65469;SDS011;52067;50.710;14.492;2024-02-26T01:59:18;83.57;;;28.73;;
65469;SDS011;52067;50.710;14.492;2024-02-26T02:01:44;76.03;;;27.52;;
65469;SDS011;52067;50.710;14.492;2024-02-26T02:04:12;80.20;;;26.80;;
65469;SDS011;52067;50.710;14.492;2024-02-26T02:06:37;80.65;;;26.92;;
65469;SDS011;52067;50.710;14.492;2024-02-26T02:09:03;80.05;;;25.33;;
65469;SDS011;52067;50.710;14.492;2024-02-26T02:11:32;70.93;;;25.85;;
65469;SDS011;52067;50.710;14.492;2024-02-26T02:13:58;67.90;;;25.58;;
65469;SDS011;52067;50.710;14.492;2024-02-26T02:16:24;72.68;;;26.50;;
65469;SDS011;52067;50.710;14.492;2024-02-26T02:18:49;69.40;;;24.42;;
65469;SDS011;52067;50.710;14.492;2024-02-26T02:21:15;71.38;;;25.77;;
65469;SDS011;52067;50.710;14.492;2024-02-26T02:23:40;97.63;;;30.92;;
65469;SDS011;52067;50.710;14.492;2024-02-26T02:26:11;71.13;;;26.08;;
65469;SDS011;52067;50.710;14.492;2024-02-26T02:28:36;69.82;;;26.67;;
65469;SDS011;52067;50.710;14.492;2024-02-26T02:31:02;78.47;;;27.92;;
65469;SDS011;52067;50.710;14.492;2024-02-26T02:33:28;71.10;;;25.98;;
65469;SDS011;52067;50.710;14.492;2024-02-26T02:35:54;83.95;;;29.98;;
65469;SDS011;52067;50.710;14.492;2024-02-26T02:38:20;74.68;;;27.33;;
65469;SDS011;52067;50.710;14.492;2024-02-26T02:40:45;71.65;;;26.15;;
65469;SDS011;52067;50.710;14.492;2024-02-26T02:43:11;88.10;;;30.58;;
65469;SDS011;52067;50.710;14.492;2024-02-26T02:45:36;64.30;;;23.25;;
65469;SDS011;52067;50.710;14.492;2024-02-26T02:48:02;102.10;;;34.50;;
65469;SDS011;52067;50.710;14.492;2024-02-26T02:50:27;76.30;;;27.90;;
65469;SDS011;52067;50.710;14.492;2024-02-26T02:52:54;65.88;;;24.25;;
65469;SDS011;52067;50.710;14.492;2024-02-26T02:55:19;92.88;;;33.83;;
65469;SDS011;52067;50.710;14.492;2024-02-26T02:57:45;135.57;;;43.75;;
65469;SDS011;52067;50.710;14.492;2024-02-26T03:00:10;154.20;;;48.60;;
65469;SDS011;52067;50.710;14.492;2024-02-26T03:02:36;72.88;;;27.75;;
65469;SDS011;52067;50.710;14.492;2024-02-26T03:05:05;57.95;;;22.17;;
65469;SDS011;52067;50.710;14.492;2024-02-26T03:07:30;60.47;;;22.85;;
65469;SDS011;52067;50.710;14.492;2024-02-26T03:09:56;103.63;;;37.38;;
65469;SDS011;52067;50.710;14.492;2024-02-26T03:12:22;102.65;;;33.75;;
65469;SDS011;52067;50.710;14.492;2024-02-26T03:14:47;58.35;;;21.48;;
65469;SDS011;52067;50.710;14.492;2024-02-26T03:17:13;70.25;;;26.73;;
65469;SDS011;52067;50.710;14.492;2024-02-26T03:19:38;68.22;;;27.88;;
65469;SDS011;52067;50.710;14.492;2024-02-26T03:22:04;67.20;;;27.67;;
65469;SDS011;52067;50.710;14.492;2024-02-26T03:24:29;60.35;;;23.55;;
65469;SDS011;52067;50.710;14.492;2024-02-26T03:26:55;56.65;;;22.67;;
65469;SDS011;52067;50.710;14.492;2024-02-26T03:29:21;64.13;;;24.25;;
65469;SDS011;52067;50.710;14.492;2024-02-26T03:31:46;66.22;;;24.45;;
65469;SDS011;52067;50.710;14.492;2024-02-26T03:34:11;56.95;;;22.42;;
65469;SDS011;52067;50.710;14.492;2024-02-26T03:36:38;68.57;;;23.10;;
65469;SDS011;52067;50.710;14.492;2024-02-26T03:39:04;59.40;;;22.58;;
65469;SDS011;52067;50.710;14.492;2024-02-26T03:41:32;47.55;;;19.38;;
65469;SDS011;52067;50.710;14.492;2024-02-26T03:43:58;40.97;;;18.27;;
65469;SDS011;52067;50.710;14.492;2024-02-26T03:46:23;43.95;;;17.90;;
65469;SDS011;52067;50.710;14.492;2024-02-26T03:48:49;47.03;;;19.27;;
65469;SDS011;52067;50.710;14.492;2024-02-26T03:51:14;37.45;;;17.25;;
65469;SDS011;52067;50.710;14.492;2024-02-26T03:53:40;41.85;;;19.23;;
65469;SDS011;52067;50.710;14.492;2024-02-26T03:56:05;48.78;;;19.85;;
65469;SDS011;52067;50.710;14.492;2024-02-26T03:58:31;45.63;;;18.58;;
65469;SDS011;52067;50.710;14.492;2024-02-26T04:00:57;44.95;;;16.95;;
65469;SDS011;52067;50.710;14.492;2024-02-26T04:03:24;41.90;;;17.35;;
65469;SDS011;52067;50.710;14.492;2024-02-26T04:05:49;49.50;;;18.55;;
65469;SDS011;52067;50.710;14.492;2024-02-26T04:08:14;41.85;;;17.50;;
65469;SDS011;52067;50.710;14.492;2024-02-26T04:10:40;41.30;;;16.98;;
65469;SDS011;52067;50.710;14.492;2024-02-26T04:13:06;41.97;;;16.23;;
65469;SDS011;52067;50.710;14.492;2024-02-26T04:15:32;35.33;;;15.13;;
65469;SDS011;52067;50.710;14.492;2024-02-26T04:17:58;40.40;;;16.23;;
65469;SDS011;52067;50.710;14.492;2024-02-26T04:20:23;44.25;;;17.15;;
65469;SDS011;52067;50.710;14.492;2024-02-26T04:22:48;36.65;;;14.43;;
65469;SDS011;52067;50.710;14.492;2024-02-26T04:25:14;39.97;;;16.48;;
65469;SDS011;52067;50.710;14.492;2024-02-26T04:27:40;42.42;;;17.38;;
65469;SDS011;52067;50.710;14.492;2024-02-26T04:30:06;38.47;;;15.93;;
65469;SDS011;52067;50.710;14.492;2024-02-26T04:32:32;38.05;;;16.42;;
65469;SDS011;52067;50.710;14.492;2024-02-26T04:34:57;43.22;;;16.95;;
65469;SDS011;52067;50.710;14.492;2024-02-26T04:37:23;30.63;;;14.05;;
65469;SDS011;52067;50.710;14.492;2024-02-26T04:39:48;36.83;;;15.52;;
65469;SDS011;52067;50.710;14.492;2024-02-26T04:42:13;35.97;;;15.48;;
65469;SDS011;52067;50.710;14.492;2024-02-26T04:44:39;34.58;;;14.13;;
65469;SDS011;52067;50.710;14.492;2024-02-26T04:47:04;39.88;;;15.18;;
65469;SDS011;52067;50.710;14.492;2024-02-26T04:49:30;40.75;;;15.23;;
65469;SDS011;52067;50.710;14.492;2024-02-26T04:51:55;41.97;;;16.35;;
65469;SDS011;52067;50.710;14.492;2024-02-26T04:54:21;40.97;;;17.08;;
65469;SDS011;52067;50.710;14.492;2024-02-26T04:56:46;43.60;;;17.15;;
65469;SDS011;52067;50.710;14.492;2024-02-26T04:59:13;42.03;;;16.67;;
65469;SDS011;52067;50.710;14.492;2024-02-26T05:01:39;44.35;;;17.40;;
65469;SDS011;52067;50.710;14.492;2024-02-26T05:04:05;40.08;;;16.92;;
65469;SDS011;52067;50.710;14.492;2024-02-26T05:06:30;41.65;;;17.13;;
65469;SDS011;52067;50.710;14.492;2024-02-26T05:08:56;54.63;;;18.60;;
65469;SDS011;52067;50.710;14.492;2024-02-26T05:11:21;48.70;;;18.58;;
65469;SDS011;52067;50.710;14.492;2024-02-26T05:13:47;43.83;;;18.63;;
65469;SDS011;52067;50.710;14.492;2024-02-26T05:16:13;46.45;;;19.05;;
65469;SDS011;52067;50.710;14.492;2024-02-26T05:18:38;49.10;;;18.50;;
65469;SDS011;52067;50.710;14.492;2024-02-26T05:21:04;45.20;;;18.38;;
65469;SDS011;52067;50.710;14.492;2024-02-26T05:23:29;45.03;;;18.27;;
65469;SDS011;52067;50.710;14.492;2024-02-26T05:25:55;47.80;;;18.40;;
65469;SDS011;52067;50.710;14.492;2024-02-26T05:28:20;41.35;;;17.20;;
65469;SDS011;52067;50.710;14.492;2024-02-26T05:30:46;45.65;;;18.30;;
65469;SDS011;52067;50.710;14.492;2024-02-26T05:33:11;44.50;;;18.33;;
65469;SDS011;52067;50.710;14.492;2024-02-26T05:35:37;40.47;;;17.02;;
65469;SDS011;52067;50.710;14.492;2024-02-26T05:38:03;49.28;;;18.70;;
65469;SDS011;52067;50.710;14.492;2024-02-26T05:40:28;50.38;;;20.27;;
65469;SDS011;52067;50.710;14.492;2024-02-26T05:42:55;45.42;;;19.25;;
65469;SDS011;52067;50.710;14.492;2024-02-26T05:45:20;56.85;;;21.67;;
65469;SDS011;52067;50.710;14.492;2024-02-26T05:47:46;44.58;;;19.20;;
65469;SDS011;52067;50.710;14.492;2024-02-26T05:50:13;55.42;;;20.55;;
65469;SDS011;52067;50.710;14.492;2024-02-26T05:52:40;62.53;;;24.42;;
65469;SDS011;52067;50.710;14.492;2024-02-26T05:55:05;68.25;;;25.95;;
65469;SDS011;52067;50.710;14.492;2024-02-26T05:57:32;80.03;;;30.27;;
65469;SDS011;52067;50.710;14.492;2024-02-26T05:59:58;66.90;;;25.83;;
65469;SDS011;52067;50.710;14.492;2024-02-26T06:02:28;69.80;;;26.40;;
65469;SDS011;52067;50.710;14.492;2024-02-26T06:04:54;64.63;;;24.63;;
65469;SDS011;52067;50.710;14.492;2024-02-26T06:07:19;64.32;;;24.30;;
65469;SDS011;52067;50.710;14.492;2024-02-26T06:09:44;63.67;;;24.80;;
65469;SDS011;52067;50.710;14.492;2024-02-26T06:12:10;70.45;;;25.73;;
65469;SDS011;52067;50.710;14.492;2024-02-26T06:14:35;71.70;;;26.75;;
65469;SDS011;52067;50.710;14.492;2024-02-26T06:17:01;70.88;;;25.30;;
65469;SDS011;52067;50.710;14.492;2024-02-26T06:19:26;67.68;;;26.33;;
65469;SDS011;52067;50.710;14.492;2024-02-26T06:21:51;67.32;;;24.23;;
65469;SDS011;52067;50.710;14.492;2024-02-26T06:24:17;76.90;;;25.45;;
65469;SDS011;52067;50.710;14.492;2024-02-26T06:26:42;75.07;;;25.80;;
65469;SDS011;52067;50.710;14.492;2024-02-26T06:29:10;79.93;;;30.48;;
65469;SDS011;52067;50.710;14.492;2024-02-26T06:31:35;89.38;;;33.22;;
65469;SDS011;52067;50.710;14.492;2024-02-26T06:34:00;67.57;;;26.55;;
65469;SDS011;52067;50.710;14.492;2024-02-26T06:36:26;73.43;;;26.98;;
65469;SDS011;52067;50.710;14.492;2024-02-26T06:38:51;73.13;;;28.63;;
65469;SDS011;52067;50.710;14.492;2024-02-26T06:41:19;72.82;;;29.95;;
65469;SDS011;52067;50.710;14.492;2024-02-26T06:43:44;81.07;;;29.30;;
65469;SDS011;52067;50.710;14.492;2024-02-26T06:46:10;94.85;;;35.55;;
65469;SDS011;52067;50.710;14.492;2024-02-26T06:48:35;108.13;;;37.92;;
65469;SDS011;52067;50.710;14.492;2024-02-26T06:51:02;98.90;;;35.85;;
65469;SDS011;52067;50.710;14.492;2024-02-26T06:53:27;109.40;;;35.90;;
65469;SDS011;52067;50.710;14.492;2024-02-26T06:55:53;89.80;;;36.38;;
65469;SDS011;52067;50.710;14.492;2024-02-26T06:58:18;111.90;;;36.38;;
65469;SDS011;52067;50.710;14.492;2024-02-26T07:00:43;83.47;;;32.58;;
65469;SDS011;52067;50.710;14.492;2024-02-26T07:03:09;88.72;;;33.83;;
65469;SDS011;52067;50.710;14.492;2024-02-26T07:05:34;95.03;;;36.30;;
65469;SDS011;52067;50.710;14.492;2024-02-26T07:08:00;94.53;;;35.38;;
65469;SDS011;52067;50.710;14.492;2024-02-26T07:10:25;90.63;;;33.85;;
65469;SDS011;52067;50.710;14.492;2024-02-26T07:12:50;89.57;;;35.53;;
65469;SDS011;52067;50.710;14.492;2024-02-26T07:15:16;96.47;;;35.40;;
65469;SDS011;52067;50.710;14.492;2024-02-26T07:17:44;97.32;;;35.17;;
65469;SDS011;52067;50.710;14.492;2024-02-26T07:20:12;92.93;;;35.38;;
65469;SDS011;52067;50.710;14.492;2024-02-26T07:22:39;89.30;;;35.22;;
65469;SDS011;52067;50.710;14.492;2024-02-26T07:25:04;98.00;;;35.40;;
65469;SDS011;52067;50.710;14.492;2024-02-26T07:27:32;89.57;;;34.63;;
65469;SDS011;52067;50.710;14.492;2024-02-26T07:29:58;91.75;;;35.40;;
65469;SDS011;52067;50.710;14.492;2024-02-26T07:32:23;78.75;;;33.15;;
65469;SDS011;52067;50.710;14.492;2024-02-26T07:34:48;89.32;;;32.25;;
65469;SDS011;52067;50.710;14.492;2024-02-26T07:37:15;76.30;;;31.30;;
65469;SDS011;52067;50.710;14.492;2024-02-26T07:39:40;75.40;;;30.48;;
65469;SDS011;52067;50.710;14.492;2024-02-26T07:42:05;72.28;;;31.45;;
65469;SDS011;52067;50.710;14.492;2024-02-26T07:44:31;77.65;;;32.30;;
65469;SDS011;52067;50.710;14.492;2024-02-26T07:46:56;85.18;;;35.35;;
65469;SDS011;52067;50.710;14.492;2024-02-26T07:49:22;86.85;;;36.92;;
65469;SDS011;52067;50.710;14.492;2024-02-26T07:51:47;90.47;;;35.40;;
65469;SDS011;52067;50.710;14.492;2024-02-26T07:54:12;89.93;;;35.72;;
65469;SDS011;52067;50.710;14.492;2024-02-26T07:56:38;83.18;;;32.58;;
65469;SDS011;52067;50.710;14.492;2024-02-26T07:59:03;101.57;;;39.30;;
65469;SDS011;52067;50.710;14.492;2024-02-26T08:01:29;92.88;;;38.65;;
65469;SDS011;52067;50.710;14.492;2024-02-26T08:03:54;89.30;;;37.72;;
65469;SDS011;52067;50.710;14.492;2024-02-26T08:06:20;87.00;;;37.80;;
65469;SDS011;52067;50.710;14.492;2024-02-26T08:08:46;85.10;;;36.38;;
65469;SDS011;52067;50.710;14.492;2024-02-26T08:11:13;95.25;;;37.25;;
65469;SDS011;52067;50.710;14.492;2024-02-26T08:13:39;82.63;;;35.30;;
65469;SDS011;52067;50.710;14.492;2024-02-26T08:16:05;73.93;;;33.78;;
65469;SDS011;52067;50.710;14.492;2024-02-26T08:18:31;80.53;;;33.55;;
65469;SDS011;52067;50.710;14.492;2024-02-26T08:20:56;76.90;;;33.10;;
65469;SDS011;52067;50.710;14.492;2024-02-26T08:23:21;41.13;;;19.13;;
65469;SDS011;52067;50.710;14.492;2024-02-26T08:25:47;52.95;;;23.77;;
65469;SDS011;52067;50.710;14.492;2024-02-26T08:28:12;54.13;;;24.42;;
65469;SDS011;52067;50.710;14.492;2024-02-26T08:30:39;65.13;;;29.77;;
65469;SDS011;52067;50.710;14.492;2024-02-26T08:33:04;59.03;;;28.10;;
65469;SDS011;52067;50.710;14.492;2024-02-26T08:35:30;67.00;;;27.23;;
65469;SDS011;52067;50.710;14.492;2024-02-26T08:37:55;33.78;;;15.80;;
65469;SDS011;52067;50.710;14.492;2024-02-26T08:40:20;34.15;;;14.93;;
65469;SDS011;52067;50.710;14.492;2024-02-26T08:42:46;38.13;;;16.98;;
65469;SDS011;52067;50.710;14.492;2024-02-26T08:45:11;50.95;;;22.23;;
65469;SDS011;52067;50.710;14.492;2024-02-26T08:47:37;58.42;;;29.15;;
65469;SDS011;52067;50.710;14.492;2024-02-26T08:50:03;75.10;;;33.15;;
65469;SDS011;52067;50.710;14.492;2024-02-26T08:52:30;67.30;;;30.92;;
65469;SDS011;52067;50.710;14.492;2024-02-26T08:54:55;65.60;;;32.25;;
65469;SDS011;52067;50.710;14.492;2024-02-26T08:57:21;76.10;;;30.38;;
65469;SDS011;52067;50.710;14.492;2024-02-26T08:59:47;51.40;;;24.58;;
65469;SDS011;52067;50.710;14.492;2024-02-26T09:02:12;58.13;;;26.00;;
65469;SDS011;52067;50.710;14.492;2024-02-26T09:04:38;54.28;;;24.77;;
65469;SDS011;52067;50.710;14.492;2024-02-26T09:07:03;62.13;;;26.08;;
65469;SDS011;52067;50.710;14.492;2024-02-26T09:09:28;45.70;;;23.90;;
65469;SDS011;52067;50.710;14.492;2024-02-26T09:11:54;62.67;;;27.77;;
65469;SDS011;52067;50.710;14.492;2024-02-26T09:14:20;62.47;;;28.17;;
65469;SDS011;52067;50.710;14.492;2024-02-26T09:16:46;68.13;;;29.92;;
65469;SDS011;52067;50.710;14.492;2024-02-26T09:19:13;41.78;;;19.13;;
65469;SDS011;52067;50.710;14.492;2024-02-26T09:21:42;43.20;;;20.27;;
65469;SDS011;52067;50.710;14.492;2024-02-26T09:24:08;38.85;;;19.00;;
65469;SDS011;52067;50.710;14.492;2024-02-26T09:26:33;35.08;;;18.02;;
65469;SDS011;52067;50.710;14.492;2024-02-26T09:28:58;30.73;;;14.38;;
65469;SDS011;52067;50.710;14.492;2024-02-26T09:31:24;30.27;;;14.63;;
65469;SDS011;52067;50.710;14.492;2024-02-26T09:33:49;27.77;;;15.40;;
65469;SDS011;52067;50.710;14.492;2024-02-26T09:36:15;29.30;;;14.90;;
65469;SDS011;52067;50.710;14.492;2024-02-26T09:38:40;27.02;;;14.38;;
65469;SDS011;52067;50.710;14.492;2024-02-26T09:41:06;25.08;;;13.10;;
65469;SDS011;52067;50.710;14.492;2024-02-26T09:43:38;22.45;;;11.13;;
65469;SDS011;52067;50.710;14.492;2024-02-26T09:46:07;23.13;;;11.65;;
65469;SDS011;52067;50.710;14.492;2024-02-26T09:48:33;20.23;;;11.00;;
65469;SDS011;52067;50.710;14.492;2024-02-26T09:51:00;21.17;;;10.68;;
65469;SDS011;52067;50.710;14.492;2024-02-26T09:53:27;17.63;;;9.18;;
65469;SDS011;52067;50.710;14.492;2024-02-26T09:55:56;23.20;;;10.10;;
65469;SDS011;52067;50.710;14.492;2024-02-26T09:58:22;18.13;;;9.93;;
65469;SDS011;52067;50.710;14.492;2024-02-26T10:00:50;20.38;;;9.65;;
65469;SDS011;52067;50.710;14.492;2024-02-26T10:03:18;16.88;;;9.40;;
65469;SDS011;52067;50.710;14.492;2024-02-26T10:05:46;19.40;;;9.88;;
65469;SDS011;52067;50.710;14.492;2024-02-26T10:08:14;20.55;;;9.90;;
65469;SDS011;52067;50.710;14.492;2024-02-26T10:10:40;18.90;;;10.05;;
65469;SDS011;52067;50.710;14.492;2024-02-26T10:13:06;21.02;;;10.10;;
65469;SDS011;52067;50.710;14.492;2024-02-26T10:15:35;18.98;;;9.30;;
65469;SDS011;52067;50.710;14.492;2024-02-26T10:18:03;20.35;;;10.60;;
65469;SDS011;52067;50.710;14.492;2024-02-26T10:20:30;20.35;;;11.23;;
65469;SDS011;52067;50.710;14.492;2024-02-26T10:22:56;21.88;;;10.43;;
65469;SDS011;52067;50.710;14.492;2024-02-26T10:25:22;19.15;;;9.68;;
65469;SDS011;52067;50.710;14.492;2024-02-26T10:27:47;18.38;;;9.73;;
65469;SDS011;52067;50.710;14.492;2024-02-26T10:30:17;18.92;;;9.30;;
65469;SDS011;52067;50.710;14.492;2024-02-26T10:32:46;20.38;;;8.93;;
65469;SDS011;52067;50.710;14.492;2024-02-26T10:35:16;19.58;;;9.35;;
65469;SDS011;52067;50.710;14.492;2024-02-26T10:37:42;15.55;;;8.70;;
65469;SDS011;52067;50.710;14.492;2024-02-26T10:40:11;15.65;;;9.02;;
65469;SDS011;52067;50.710;14.492;2024-02-26T10:42:37;17.23;;;9.43;;
65469;SDS011;52067;50.710;14.492;2024-02-26T10:45:04;20.05;;;9.52;;
65469;SDS011;52067;50.710;14.492;2024-02-26T10:47:30;17.15;;;9.45;;
65469;SDS011;52067;50.710;14.492;2024-02-26T10:49:58;15.02;;;8.57;;
65469;SDS011;52067;50.710;14.492;2024-02-26T10:52:23;18.35;;;9.23;;
65469;SDS011;52067;50.710;14.492;2024-02-26T10:54:51;15.80;;;8.20;;
65469;SDS011;52067;50.710;14.492;2024-02-26T10:57:19;12.77;;;7.75;;
65469;SDS011;52067;50.710;14.492;2024-02-26T10:59:46;11.27;;;7.70;;
65469;SDS011;52067;50.710;14.492;2024-02-26T11:02:13;14.05;;;8.65;;
65469;SDS011;52067;50.710;14.492;2024-02-26T11:04:39;13.15;;;7.68;;
65469;SDS011;52067;50.710;14.492;2024-02-26T11:07:04;13.30;;;8.07;;
65469;SDS011;52067;50.710;14.492;2024-02-26T11:09:31;14.05;;;8.70;;
65469;SDS011;52067;50.710;14.492;2024-02-26T11:11:57;16.88;;;8.75;;
65469;SDS011;52067;50.710;14.492;2024-02-26T11:14:24;14.27;;;7.95;;
65469;SDS011;52067;50.710;14.492;2024-02-26T11:16:51;14.63;;;8.63;;
65469;SDS011;52067;50.710;14.492;2024-02-26T11:19:17;13.57;;;8.02;;
65469;SDS011;52067;50.710;14.492;2024-02-26T11:21:43;11.27;;;7.18;;
65469;SDS011;52067;50.710;14.492;2024-02-26T11:24:10;11.98;;;6.65;;
65469;SDS011;52067;50.710;14.492;2024-02-26T11:26:39;11.48;;;7.45;;
65469;SDS011;52067;50.710;14.492;2024-02-26T11:29:10;14.15;;;8.10;;
65469;SDS011;52067;50.710;14.492;2024-02-26T11:31:38;17.85;;;7.78;;
65469;SDS011;52067;50.710;14.492;2024-02-26T11:34:06;13.38;;;7.50;;
65469;SDS011;52067;50.710;14.492;2024-02-26T11:36:32;11.75;;;6.95;;
65469;SDS011;52067;50.710;14.492;2024-02-26T11:38:58;13.27;;;7.15;;
65469;SDS011;52067;50.710;14.492;2024-02-26T11:41:23;13.35;;;7.03;;
65469;SDS011;52067;50.710;14.492;2024-02-26T11:44:00;13.85;;;8.18;;
65469;SDS011;52067;50.710;14.492;2024-02-26T11:46:30;14.20;;;8.23;;
65469;SDS011;52067;50.710;14.492;2024-02-26T11:49:03;11.18;;;6.90;;
65469;SDS011;52067;50.710;14.492;2024-02-26T11:51:55;13.05;;;7.15;;
65469;SDS011;52067;50.710;14.492;2024-02-26T11:54:43;11.32;;;6.82;;
65469;SDS011;52067;50.710;14.492;2024-02-26T11:57:22;13.15;;;7.00;;
65469;SDS011;52067;50.710;14.492;2024-02-26T11:59:48;11.90;;;7.30;;
65469;SDS011;52067;50.710;14.492;2024-02-26T12:05:17;13.23;;;6.93;;
65469;SDS011;52067;50.710;14.492;2024-02-26T12:07:55;12.23;;;7.30;;
65469;SDS011;52067;50.710;14.492;2024-02-26T12:10:25;12.55;;;6.30;;
65469;SDS011;52067;50.710;14.492;2024-02-26T12:12:54;13.43;;;6.70;;
65469;SDS011;52067;50.710;14.492;2024-02-26T12:15:41;9.75;;;6.22;;
65469;SDS011;52067;50.710;14.492;2024-02-26T12:18:08;13.82;;;6.65;;
65469;SDS011;52067;50.710;14.492;2024-02-26T12:20:35;10.63;;;6.65;;
65469;SDS011;52067;50.710;14.492;2024-02-26T12:23:04;11.13;;;6.95;;
65469;SDS011;52067;50.710;14.492;2024-02-26T12:25:30;11.02;;;6.00;;
65469;SDS011;52067;50.710;14.492;2024-02-26T12:27:56;9.63;;;5.70;;
65469;SDS011;52067;50.710;14.492;2024-02-26T12:30:22;12.25;;;6.80;;
65469;SDS011;52067;50.710;14.492;2024-02-26T12:32:49;10.45;;;6.30;;
65469;SDS011;52067;50.710;14.492;2024-02-26T12:35:15;18.05;;;6.20;;
65469;SDS011;52067;50.710;14.492;2024-02-26T12:37:42;12.20;;;7.25;;
65469;SDS011;52067;50.710;14.492;2024-02-26T12:40:11;9.82;;;6.20;;
65469;SDS011;52067;50.710;14.492;2024-02-26T12:42:38;11.40;;;5.78;;
65469;SDS011;52067;50.710;14.492;2024-02-26T12:45:07;9.88;;;5.57;;
65469;SDS011;52067;50.710;14.492;2024-02-26T12:50:02;9.27;;;5.57;;
65469;SDS011;52067;50.710;14.492;2024-02-26T12:52:29;8.65;;;5.75;;
65469;SDS011;52067;50.710;14.492;2024-02-26T12:54:58;11.80;;;6.10;;
65469;SDS011;52067;50.710;14.492;2024-02-26T12:57:24;10.50;;;6.10;;
65469;SDS011;52067;50.710;14.492;2024-02-26T12:59:49;9.60;;;6.20;;
65469;SDS011;52067;50.710;14.492;2024-02-26T13:02:15;10.70;;;6.32;;
65469;SDS011;52067;50.710;14.492;2024-02-26T13:04:40;8.82;;;5.45;;
65469;SDS011;52067;50.710;14.492;2024-02-26T13:07:06;9.48;;;6.10;;
65469;SDS011;52067;50.710;14.492;2024-02-26T13:09:32;10.45;;;6.00;;
65469;SDS011;52067;50.710;14.492;2024-02-26T13:12:00;12.18;;;5.97;;
65469;SDS011;52067;50.710;14.492;2024-02-26T13:14:25;9.77;;;6.20;;
65469;SDS011;52067;50.710;14.492;2024-02-26T13:16:57;10.68;;;5.45;;
65469;SDS011;52067;50.710;14.492;2024-02-26T13:19:23;9.25;;;5.88;;
65469;SDS011;52067;50.710;14.492;2024-02-26T13:21:49;9.15;;;5.35;;
65469;SDS011;52067;50.710;14.492;2024-02-26T13:24:14;9.55;;;6.05;;
65469;SDS011;52067;50.710;14.492;2024-02-26T13:26:40;10.27;;;5.70;;
65469;SDS011;52067;50.710;14.492;2024-02-26T13:29:05;8.68;;;5.43;;
65469;SDS011;52067;50.710;14.492;2024-02-26T13:31:31;8.40;;;4.90;;
65469;SDS011;52067;50.710;14.492;2024-02-26T13:33:57;8.65;;;5.28;;
65469;SDS011;52067;50.710;14.492;2024-02-26T13:36:22;10.90;;;6.05;;
65469;SDS011;52067;50.710;14.492;2024-02-26T13:38:55;9.05;;;5.47;;
65469;SDS011;52067;50.710;14.492;2024-02-26T13:41:21;10.93;;;5.22;;
65469;SDS011;52067;50.710;14.492;2024-02-26T13:43:49;8.35;;;5.18;;
65469;SDS011;52067;50.710;14.492;2024-02-26T13:46:15;8.00;;;5.05;;
65469;SDS011;52067;50.710;14.492;2024-02-26T13:48:42;9.32;;;5.05;;
65469;SDS011;52067;50.710;14.492;2024-02-26T13:51:08;8.60;;;4.85;;
65469;SDS011;52067;50.710;14.492;2024-02-26T13:53:34;7.53;;;5.05;;
65469;SDS011;52067;50.710;14.492;2024-02-26T13:55:59;9.15;;;4.97;;
65469;SDS011;52067;50.710;14.492;2024-02-26T13:58:26;9.60;;;4.93;;
65469;SDS011;52067;50.710;14.492;2024-02-26T14:00:52;6.88;;;5.05;;
65469;SDS011;52067;50.710;14.492;2024-02-26T14:03:18;7.90;;;4.75;;
65469;SDS011;52067;50.710;14.492;2024-02-26T14:05:44;8.00;;;4.75;;
65469;SDS011;52067;50.710;14.492;2024-02-26T14:08:10;8.68;;;4.78;;
65469;SDS011;52067;50.710;14.492;2024-02-26T14:10:35;9.68;;;4.90;;
65469;SDS011;52067;50.710;14.492;2024-02-26T14:13:01;7.78;;;4.50;;